Time;durP1;ratioP1;P1;durP2;ratioP2;P2;SDS_P1;SDS_P2;PMS_P1;PMS_P2;Temp;Humidity;BMP_temperature;BMP_pressure;BME280_temperature;BME280_humidity;BME280_pressure;Samples;Min_cycle;Max_cycle;Signal;HPM_P1;HPM_P2
2022/03/30 00:00:56;;;;;;;0.00;0.00;;;;;;;9.71;59.74;100999.75;5014393;28;20075;-76
2022/03/30 00:03:22;;;;;;;0.90;0.40;;;;;;;9.77;59.24;100995.25;5017116;28;20038;-77
2022/03/30 00:05:48;;;;;;;0.10;0.10;;;;;;;9.78;59.75;101000.56;5013206;28;20376;-78
2022/03/30 00:08:15;;;;;;;0.10;0.10;;;;;;;9.82;59.69;100991.66;5012303;28;20427;-77
2022/03/30 00:10:41;;;;;;;2.17;0.65;;;;;;;9.83;59.78;100995.16;5009426;28;20480;-78
2022/03/30 00:13:09;;;;;;;0.55;0.55;;;;;;;9.87;59.36;100994.25;5012562;28;20021;-77
2022/03/30 00:15:35;;;;;;;0.52;0.52;;;;;;;9.87;59.04;100999.53;5017162;28;20502;-78
2022/03/30 00:18:02;;;;;;;2.38;2.28;;;;;;;9.90;59.08;100990.69;5012004;28;20712;-76
2022/03/30 00:20:28;;;;;;;0.43;0.43;;;;;;;9.89;59.30;100992.44;5011724;28;20030;-78
2022/03/30 00:22:54;;;;;;;0.10;0.10;;;;;;;9.86;59.48;100997.78;5012258;28;20021;-78
2022/03/30 00:25:21;;;;;;;0.20;0.20;;;;;;;9.88;59.09;100998.63;5009425;28;20040;-77
2022/03/30 00:27:47;;;;;;;0.10;0.10;;;;;;;9.80;59.62;100992.59;5012291;28;20026;-77
2022/03/30 00:30:16;;;;;;;0.10;0.10;;;;;;;9.84;59.28;100996.91;5013344;28;20041;-77
2022/03/30 00:32:42;;;;;;;0.10;0.10;;;;;;;9.82;59.50;100990.75;5012987;28;20026;-76
2022/03/30 00:35:09;;;;;;;0.10;0.10;;;;;;;9.86;59.12;100981.91;5012510;28;20062;-77
2022/03/30 00:37:36;;;;;;;0.10;0.10;;;;;;;9.86;59.43;100979.25;5009936;28;20100;-77
2022/03/30 00:40:06;;;;;;;0.20;0.20;;;;;;;9.85;59.26;100988.09;5010686;28;20129;-77
2022/03/30 00:42:32;;;;;;;0.10;0.10;;;;;;;9.80;59.15;100987.28;5011323;28;20030;-78
2022/03/30 00:45:05;;;;;;;0.55;0.55;;;;;;;9.77;58.98;100982.03;5012208;28;20026;-76
2022/03/30 00:47:32;;;;;;;0.60;0.60;;;;;;;9.75;58.92;100983.84;5012508;28;20038;-78
2022/03/30 00:49:58;;;;;;;0.10;0.10;;;;;;;9.70;59.01;100983.91;5011381;28;20045;-77
2022/03/30 00:52:24;;;;;;;0.40;0.40;;;;;;;9.68;58.82;100975.09;5011804;28;20045;-78
2022/03/30 00:54:51;;;;;;;0.50;0.50;;;;;;;9.59;59.68;100973.44;5013412;28;20125;-78
2022/03/30 00:57:21;;;;;;;0.10;0.10;;;;;;;9.57;59.15;100969.09;5012351;28;20045;-78
2022/03/30 00:59:48;;;;;;;0.10;0.10;;;;;;;9.48;59.78;100976.28;5013365;28;20036;-79
2022/03/30 01:02:15;;;;;;;0.00;0.00;;;;;;;9.45;59.80;100972.78;5014327;28;20060;-78
2022/03/30 01:04:44;;;;;;;0.47;0.47;;;;;;;9.43;59.88;100971.91;5015834;28;20026;-78
2022/03/30 01:07:10;;;;;;;0.08;0.08;;;;;;;9.37;59.60;100973.75;5014374;28;20051;-79
2022/03/30 01:09:37;;;;;;;0.10;0.10;;;;;;;9.35;59.81;100956.16;5014676;28;20058;-78
2022/03/30 01:12:03;;;;;;;0.20;0.20;;;;;;;9.30;60.27;100963.28;5014707;28;20037;-78
2022/03/30 01:14:31;;;;;;;0.15;0.15;;;;;;;9.21;60.26;100957.19;5015518;28;20064;-79
2022/03/30 01:16:58;;;;;;;0.20;0.20;;;;;;;9.16;60.07;100959.03;5014021;28;20484;-78
2022/03/30 01:19:29;;;;;;;0.20;0.20;;;;;;;9.12;60.06;100956.44;5009996;28;20046;-77
2022/03/30 01:21:56;;;;;;;0.35;0.35;;;;;;;9.03;59.95;100955.69;5013407;28;20458;-78
2022/03/30 01:24:22;;;;;;;1.75;0.68;;;;;;;8.94;59.96;100942.56;5011543;28;20037;-78
2022/03/30 01:26:49;;;;;;;0.63;0.63;;;;;;;8.88;60.59;100947.91;5013573;28;20026;-78
2022/03/30 01:32:34;;;;;;;0.10;0.10;;;;;;;8.84;60.39;100956.78;5011222;28;20080;-79
2022/03/30 01:34:47;;;;;;;0.10;0.10;;;;;;;8.81;60.79;100948.88;5011773;28;20044;-78
2022/03/30 01:37:15;;;;;;;0.10;0.10;;;;;;;8.78;60.61;100946.28;5013918;28;20057;-78
2022/03/30 01:39:42;;;;;;;0.55;0.40;;;;;;;8.72;60.44;100940.16;5014401;28;20034;-76
2022/03/30 01:42:09;;;;;;;0.43;0.43;;;;;;;8.67;60.29;100936.69;5031854;28;20061;-78
2022/03/30 01:44:37;;;;;;;0.10;0.10;;;;;;;8.63;59.95;100940.25;5017399;28;20033;-77
2022/03/30 01:47:04;;;;;;;0.10;0.10;;;;;;;8.58;60.25;100950.88;5013586;28;20026;-78
2022/03/30 01:49:30;;;;;;;0.10;0.10;;;;;;;8.55;60.88;100945.63;5013337;28;20421;-77
2022/03/30 01:51:58;;;;;;;0.10;0.10;;;;;;;8.52;60.43;100945.66;5010356;28;20024;-77
2022/03/30 01:54:27;;;;;;;0.10;0.10;;;;;;;8.48;60.39;100948.34;5013510;28;20034;-78
2022/03/30 01:56:55;;;;;;;0.10;0.10;;;;;;;8.46;61.02;100948.34;5009480;28;20072;-78
2022/03/30 01:59:22;;;;;;;0.38;0.38;;;;;;;8.45;60.72;100943.94;5015540;28;20022;-77
2022/03/30 02:01:48;;;;;;;0.00;0.00;;;;;;;8.43;60.92;100936.00;5014838;28;20040;-78
2022/03/30 02:04:15;;;;;;;0.10;0.10;;;;;;;8.41;60.62;100932.50;5013827;28;20057;-78
2022/03/30 02:06:41;;;;;;;0.10;0.10;;;;;;;8.40;61.01;100936.03;5013371;28;20038;-78
2022/03/30 02:09:08;;;;;;;1.75;1.05;;;;;;;8.41;60.43;100932.50;5015005;28;20101;-78
2022/03/30 02:11:35;;;;;;;9.20;1.30;;;;;;;8.37;61.15;100922.88;5014477;28;20116;-78
2022/03/30 02:14:01;;;;;;;0.52;0.52;;;;;;;8.35;60.74;100921.13;5013487;28;20096;-77
2022/03/30 02:16:28;;;;;;;0.10;0.10;;;;;;;8.30;60.27;100917.66;5011114;28;20117;-78
2022/03/30 02:18:54;;;;;;;0.65;0.65;;;;;;;8.25;60.59;100915.06;5012672;28;20502;-78
2022/03/30 02:21:20;;;;;;;0.10;0.10;;;;;;;8.19;61.24;100920.41;5011064;28;20069;-78
2022/03/30 02:23:47;;;;;;;0.10;0.10;;;;;;;8.14;60.96;100909.00;5012865;28;20120;-78
2022/03/30 02:26:14;;;;;;;0.32;0.32;;;;;;;8.09;60.93;100915.19;5013889;28;20050;-79
2022/03/30 02:28:43;;;;;;;0.10;0.10;;;;;;;8.06;61.44;100909.97;5013520;28;20037;-78
2022/03/30 02:31:10;;;;;;;0.28;0.28;;;;;;;8.04;60.81;100906.44;5012959;28;20034;-78
2022/03/30 02:33:36;;;;;;;0.52;0.52;;;;;;;8.00;60.92;100904.72;5013983;28;20034;-78
2022/03/30 02:36:03;;;;;;;0.80;0.80;;;;;;;7.98;60.78;100898.59;5013281;28;20415;-78
2022/03/30 02:38:30;;;;;;;0.10;0.10;;;;;;;7.94;61.70;100894.22;5014536;28;20041;-78
2022/03/30 02:40:56;;;;;;;0.28;0.28;;;;;;;7.92;61.52;100896.88;5013516;28;20034;-79
2022/03/30 02:43:22;;;;;;;0.08;0.08;;;;;;;7.86;61.24;100890.78;5012869;28;20042;-79
2022/03/30 02:45:50;;;;;;;0.28;0.25;;;;;;;7.83;61.01;100893.44;5012810;28;20021;-77
2022/03/30 02:48:19;;;;;;;0.40;0.40;;;;;;;7.77;61.07;100889.94;5014564;28;20060;-79
2022/03/30 02:50:47;;;;;;;0.50;0.50;;;;;;;7.72;61.35;100889.09;5017659;28;20026;-79
2022/03/30 02:53:14;;;;;;;0.10;0.10;;;;;;;7.70;60.88;100885.63;5016162;28;20121;-79
2022/03/30 02:55:40;;;;;;;3.20;1.27;;;;;;;7.67;61.67;100885.63;5016880;28;20063;-78
2022/03/30 02:58:08;;;;;;;0.08;0.08;;;;;;;7.65;61.52;100884.78;5017565;28;20045;-79
2022/03/30 03:00:35;;;;;;;0.00;0.00;;;;;;;7.64;61.83;100888.31;5017404;28;20030;-78
2022/03/30 03:03:02;;;;;;;0.10;0.10;;;;;;;7.60;61.50;100884.81;5014387;28;20025;-78
2022/03/30 03:05:32;;;;;;;0.30;0.30;;;;;;;7.60;61.12;100879.53;5015448;28;20510;-79
2022/03/30 03:08:00;;;;;;;0.10;0.10;;;;;;;7.57;61.53;100878.69;5018484;28;20406;-76
2022/03/30 03:10:26;;;;;;;0.10;0.10;;;;;;;7.55;61.72;100865.50;5020038;28;20116;-76
2022/03/30 03:12:53;;;;;;;0.10;0.10;;;;;;;7.55;61.36;100869.91;5017223;28;20092;-76
2022/03/30 03:15:21;;;;;;;0.10;0.10;;;;;;;7.53;61.68;100867.28;5018434;28;20096;-77
2022/03/30 03:17:47;;;;;;;0.10;0.10;;;;;;;7.51;61.26;100868.19;5019174;28;20100;-77
2022/03/30 03:20:13;;;;;;;0.10;0.10;;;;;;;7.50;61.40;100863.78;5017938;28;20037;-76
2022/03/30 03:22:40;;;;;;;0.28;0.28;;;;;;;7.47;61.95;100866.47;5017184;28;20044;-78
2022/03/30 03:25:08;;;;;;;0.10;0.10;;;;;;;7.44;62.06;100862.94;5016923;28;20037;-78
2022/03/30 03:27:34;;;;;;;0.32;0.32;;;;;;;7.42;61.65;100858.56;5017134;28;20045;-78
2022/03/30 03:30:01;;;;;;;1.85;1.13;;;;;;;7.40;61.81;100858.59;5016544;28;20424;-78
2022/03/30 03:32:27;;;;;;;0.10;0.10;;;;;;;7.40;61.79;100857.69;5015437;28;20061;-78
2022/03/30 03:34:53;;;;;;;0.10;0.10;;;;;;;7.37;61.90;100858.59;5016895;28;20084;-78
2022/03/30 03:37:20;;;;;;;0.10;0.10;;;;;;;7.38;61.63;100864.75;5017142;28;20499;-79
2022/03/30 03:39:47;;;;;;;0.10;0.10;;;;;;;7.37;61.49;100861.22;5005788;28;20044;-78
2022/03/30 03:42:13;;;;;;;0.10;0.10;;;;;;;7.34;61.69;100866.53;5015236;28;20125;-79
2022/03/30 03:44:40;;;;;;;0.10;0.10;;;;;;;7.35;61.54;100868.28;5016959;28;20034;-78
2022/03/30 03:47:08;;;;;;;1.45;1.45;;;;;;;7.36;60.89;100863.88;5016670;28;20116;-79
2022/03/30 03:49:34;;;;;;;0.10;0.10;;;;;;;7.35;61.53;100856.84;5015723;28;20026;-79
2022/03/30 03:52:00;;;;;;;0.28;0.28;;;;;;;7.32;61.30;100865.66;5015506;28;20220;-78
2022/03/30 03:54:26;;;;;;;1.20;1.10;;;;;;;7.32;61.44;100872.69;5010292;28;20061;-78
2022/03/30 03:56:52;;;;;;;0.10;0.10;;;;;;;7.30;60.71;100864.78;5016209;28;20040;-77
2022/03/30 03:59:19;;;;;;;0.10;0.10;;;;;;;7.31;60.92;100871.81;5014439;28;20696;-78
2022/03/30 04:01:45;;;;;;;0.10;0.10;;;;;;;7.33;61.23;100863.88;5014633;28;20115;-78
2022/03/30 04:04:11;;;;;;;0.10;0.10;;;;;;;7.33;61.55;100862.16;5011492;28;20552;-78
2022/03/30 04:06:37;;;;;;;0.10;0.10;;;;;;;7.32;61.81;100856.88;5015828;28;20065;-77
2022/03/30 04:09:03;;;;;;;0.10;0.10;;;;;;;7.31;61.92;100853.34;5013897;28;20041;-77
2022/03/30 04:11:29;;;;;;;0.10;0.10;;;;;;;7.32;61.86;100857.75;5014517;28;20407;-78
2022/03/30 04:13:56;;;;;;;0.00;0.00;;;;;;;7.33;61.56;100854.22;5014890;28;20053;-78
2022/03/30 04:16:22;;;;;;;3.33;3.03;;;;;;;7.38;61.77;100849.81;5016016;28;20033;-77
2022/03/30 04:18:48;;;;;;;0.10;0.10;;;;;;;7.42;62.22;100837.47;5015413;28;20492;-78
2022/03/30 04:21:14;;;;;;;0.20;0.20;;;;;;;7.45;62.30;100827.78;5013977;28;20117;-79
2022/03/30 04:23:40;;;;;;;0.10;0.10;;;;;;;7.50;62.02;100826.88;5016324;28;20022;-79
2022/03/30 04:26:10;;;;;;;0.10;0.10;;;;;;;7.54;61.36;100821.56;5016736;28;20105;-79
2022/03/30 04:28:40;;;;;;;1.08;1.02;;;;;;;7.52;61.85;100819.84;5020138;28;20034;-77
2022/03/30 04:31:08;;;;;;;0.13;0.13;;;;;;;7.52;62.27;100822.47;5012343;28;20033;-78
2022/03/30 04:33:34;;;;;;;0.20;0.20;;;;;;;7.52;61.67;100833.03;5015457;28;20030;-78
2022/03/30 04:36:01;;;;;;;0.13;0.13;;;;;;;7.51;61.97;100826.84;5015897;28;20040;-79
2022/03/30 04:38:27;;;;;;;0.10;0.10;;;;;;;7.51;61.59;100831.25;5013152;28;20033;-78
2022/03/30 04:40:53;;;;;;;0.10;0.10;;;;;;;7.50;62.30;100834.78;5011398;28;20109;-78
2022/03/30 04:43:19;;;;;;;0.10;0.10;;;;;;;7.50;61.79;100840.06;5013513;28;20083;-79
2022/03/30 04:45:45;;;;;;;0.20;0.20;;;;;;;7.46;61.82;100833.94;5015355;28;20041;-80
2022/03/30 04:48:11;;;;;;;0.10;0.10;;;;;;;7.43;62.18;100834.81;5015794;28;20594;-80
2022/03/30 04:50:37;;;;;;;0.10;0.10;;;;;;;7.39;61.48;100833.09;5011243;28;20049;-80
2022/03/30 04:53:04;;;;;;;0.10;0.10;;;;;;;7.37;61.60;100828.72;5010357;28;20045;-77
2022/03/30 04:55:31;;;;;;;0.10;0.10;;;;;;;7.33;62.28;100830.50;5012324;28;20488;-79
2022/03/30 04:57:57;;;;;;;0.10;0.10;;;;;;;7.32;61.59;100828.75;5013379;28;20032;-79
2022/03/30 05:00:23;;;;;;;0.10;0.10;;;;;;;7.29;61.86;100834.94;5009275;28;20050;-78
2022/03/30 05:02:50;;;;;;;0.10;0.10;;;;;;;7.24;62.41;100831.44;5011352;28;20564;-77
2022/03/30 05:05:16;;;;;;;0.10;0.10;;;;;;;7.22;61.90;100832.34;5013639;28;20041;-78
2022/03/30 05:07:42;;;;;;;0.10;0.10;;;;;;;7.19;61.76;100824.44;5014167;28;20509;-79
2022/03/30 05:10:11;;;;;;;0.85;0.85;;;;;;;7.18;61.53;100820.06;5012982;28;20133;-78
2022/03/30 05:12:37;;;;;;;2.92;1.00;;;;;;;7.11;62.25;100822.72;5010712;28;20364;-79
2022/03/30 05:15:04;;;;;;;0.10;0.10;;;;;;;7.10;61.80;100826.28;5012839;28;20026;-78
2022/03/30 05:17:30;;;;;;;0.10;0.10;;;;;;;7.07;61.77;100823.63;5007821;28;20026;-78
2022/03/30 05:19:56;;;;;;;0.40;0.40;;;;;;;7.07;62.35;100825.41;5013353;28;20718;-77
2022/03/30 05:22:22;;;;;;;0.10;0.10;;;;;;;7.05;62.12;100820.16;5007994;28;20515;-79
2022/03/30 05:24:49;;;;;;;0.10;0.10;;;;;;;7.04;62.43;100817.50;5009322;28;20068;-79
2022/03/30 05:27:15;;;;;;;0.60;0.60;;;;;;;7.02;62.42;100820.16;5007675;28;20037;-79
2022/03/30 05:29:41;;;;;;;0.10;0.10;;;;;;;6.98;62.53;100813.16;5011297;28;20029;-79
2022/03/30 05:32:08;;;;;;;0.10;0.10;;;;;;;6.95;62.36;100821.06;5010508;28;20389;-79
2022/03/30 05:34:34;;;;;;;0.20;0.20;;;;;;;6.94;62.19;100814.03;5009786;28;20128;-79
2022/03/30 05:37:00;;;;;;;0.20;0.20;;;;;;;6.95;62.27;100821.97;5010871;28;20511;-79
2022/03/30 05:39:26;;;;;;;0.10;0.10;;;;;;;6.97;62.39;100819.31;5012173;28;20042;-78
2022/03/30 05:41:52;;;;;;;0.10;0.10;;;;;;;6.96;62.87;100820.19;5010679;28;20508;-77
2022/03/30 05:44:19;;;;;;;0.10;0.10;;;;;;;6.95;62.33;100811.44;5012721;28;20045;-78
2022/03/30 05:46:45;;;;;;;0.10;0.10;;;;;;;6.95;62.55;100815.81;5012244;28;20415;-79
2022/03/30 05:49:11;;;;;;;0.08;0.08;;;;;;;6.96;63.07;100807.03;5010246;28;20053;-77
2022/03/30 05:51:37;;;;;;;0.10;0.10;;;;;;;6.98;62.42;100810.53;5009115;28;20380;-76
2022/03/30 05:54:10;;;;;;;0.10;0.10;;;;;;;6.99;62.41;100808.75;5045402;22;20076;-82
2022/03/30 05:57:07;;;;;;;0.10;0.10;;;;;;;6.99;62.55;100807.03;5030700;28;20021;-80
2022/03/30 05:59:23;;;;;;;0.10;0.10;;;;;;;7.01;61.98;100813.13;5027528;28;20033;-81
2022/03/30 06:01:49;;;;;;;0.05;0.05;;;;;;;7.01;62.58;100810.50;5027271;28;20034;-83
2022/03/30 06:04:29;;;;;;;0.10;0.10;;;;;;;7.04;62.30;100807.88;5016013;28;20038;-84
2022/03/30 06:06:55;;;;;;;0.10;0.10;;;;;;;7.05;62.17;100812.25;5010747;28;20048;-84
2022/03/30 06:09:21;;;;;;;0.10;0.10;;;;;;;7.06;62.45;100803.44;5010085;28;20121;-86
2022/03/30 06:11:47;;;;;;;0.10;0.10;;;;;;;7.09;62.21;100808.72;5013392;28;20057;-85
2022/03/30 06:14:14;;;;;;;0.10;0.10;;;;;;;7.12;62.62;100810.44;5018209;28;20038;-85
2022/03/30 06:16:42;;;;;;;0.10;0.10;;;;;;;7.16;62.69;100817.44;5018489;28;20033;-85
2022/03/30 06:19:10;;;;;;;0.10;0.10;;;;;;;7.21;62.51;100818.28;5019112;28;20030;-82
2022/03/30 06:21:36;;;;;;;0.10;0.10;;;;;;;7.25;62.38;100813.88;5016735;28;20531;-84
2022/03/30 06:24:02;;;;;;;0.15;0.15;;;;;;;7.30;62.67;100814.72;5023392;28;20478;-85
2022/03/30 06:26:29;;;;;;;0.10;0.10;;;;;;;7.35;62.67;100820.84;5022502;28;20033;-85
2022/03/30 06:28:56;;;;;;;0.10;0.10;;;;;;;7.38;62.55;100818.16;5022872;28;20053;-85
2022/03/30 06:31:22;;;;;;;0.93;0.85;;;;;;;7.45;62.76;100822.53;5022772;28;20026;-84
2022/03/30 06:33:49;;;;;;;1.05;1.05;;;;;;;7.52;62.41;100818.06;5020244;28;20628;-81
2022/03/30 06:36:16;;;;;;;2.83;2.20;;;;;;;7.60;62.50;100820.63;5019150;28;20080;-81
2022/03/30 06:38:43;;;;;;;0.20;0.20;;;;;;;7.65;62.84;100824.13;5019333;28;20030;-81
2022/03/30 06:41:12;;;;;;;0.10;0.10;;;;;;;7.73;63.01;100822.28;5019040;28;20555;-81
2022/03/30 06:43:42;;;;;;;0.88;0.82;;;;;;;7.81;62.76;100826.63;5019294;28;20109;-81
2022/03/30 06:46:09;;;;;;;1.98;0.90;;;;;;;7.88;62.42;100817.78;5017991;28;20030;-81
2022/03/30 06:48:35;;;;;;;0.10;0.10;;;;;;;7.95;62.36;100816.84;5017306;28;20107;-81
2022/03/30 06:51:02;;;;;;;0.05;0.05;;;;;;;8.01;63.15;100815.88;5018078;28;20040;-81
2022/03/30 06:53:29;;;;;;;0.10;0.10;;;;;;;8.08;63.17;100812.31;5017902;28;20026;-81
2022/03/30 06:55:56;;;;;;;0.10;0.10;;;;;;;8.17;62.97;100812.19;5019328;28;20078;-81
2022/03/30 06:58:23;;;;;;;0.10;0.10;;;;;;;8.25;63.15;100815.63;5018358;28;20130;-81
2022/03/30 07:00:51;;;;;;;3.63;0.82;;;;;;;8.31;63.14;100821.72;5019740;28;20030;-81
2022/03/30 07:03:17;;;;;;;0.10;0.10;;;;;;;8.36;62.62;100807.59;5018882;28;20053;-81
2022/03/30 07:05:44;;;;;;;0.10;0.10;;;;;;;8.40;62.20;100808.44;5019070;28;20105;-82
2022/03/30 07:10:56;;;;;;;0.45;0.45;;;;;;;8.55;62.79;100802.16;5016837;28;20064;-81
2022/03/30 07:13:22;;;;;;;0.63;0.57;;;;;;;8.59;62.31;100798.56;5018668;28;20030;-81
2022/03/30 07:15:49;;;;;;;0.20;0.20;;;;;;;8.65;61.82;100801.13;5011402;28;20041;-81
2022/03/30 07:18:15;;;;;;;9.05;2.05;;;;;;;8.71;62.49;100798.41;5008652;28;20079;-81
2022/03/30 07:20:41;;;;;;;0.10;0.10;;;;;;;8.79;61.88;100798.28;5009694;28;20038;-81
2022/03/30 07:23:10;;;;;;;0.10;0.10;;;;;;;8.85;62.32;100789.44;5009997;28;20378;-81
2022/03/30 07:25:36;;;;;;;0.17;0.17;;;;;;;8.93;61.62;100789.31;5011805;28;20042;-81
2022/03/30 07:28:03;;;;;;;0.10;0.10;;;;;;;8.99;61.15;100792.72;5011708;28;20037;-81
2022/03/30 07:30:30;;;;;;;1.20;0.63;;;;;;;9.05;61.41;100784.72;5011884;28;20029;-81
2022/03/30 07:32:58;;;;;;;0.10;0.10;;;;;;;9.14;61.85;100781.06;5009960;28;20033;-81
2022/03/30 07:35:28;;;;;;;0.10;0.10;;;;;;;9.23;61.57;100785.34;5009884;28;20026;-81
2022/03/30 07:37:55;;;;;;;0.10;0.10;;;;;;;9.30;61.22;100780.84;5010392;28;20498;-81
2022/03/30 07:40:22;;;;;;;0.35;0.35;;;;;;;9.39;61.11;100778.94;5007820;28;20098;-81
2022/03/30 07:42:49;;;;;;;0.08;0.08;;;;;;;9.48;61.55;100777.91;5007233;28;20393;-81
2022/03/30 07:45:17;;;;;;;1.15;0.95;;;;;;;9.57;61.09;100779.53;5005826;28;20727;-81
2022/03/30 07:47:43;;;;;;;0.10;0.10;;;;;;;9.63;60.98;100779.41;5007697;28;20121;-81
2022/03/30 07:50:10;;;;;;;0.15;0.15;;;;;;;9.68;61.50;100776.66;5009569;28;20040;-81
2022/03/30 07:52:37;;;;;;;0.40;0.40;;;;;;;9.78;61.03;100777.38;5009940;28;20401;-82
2022/03/30 07:55:05;;;;;;;1.00;1.00;;;;;;;9.89;60.78;100780.72;5010665;28;20036;-82
2022/03/30 07:57:31;;;;;;;0.08;0.08;;;;;;;9.96;60.84;100782.34;5016044;28;20586;-81
2022/03/30 07:59:59;;;;;;;0.20;0.20;;;;;;;10.07;61.02;100776.88;5018117;28;20107;-82
2022/03/30 08:02:27;;;;;;;1.17;0.52;;;;;;;10.14;60.88;100780.25;5017462;28;20029;-81
2022/03/30 08:04:54;;;;;;;0.10;0.10;;;;;;;10.26;60.76;100779.16;5016965;28;20061;-81
2022/03/30 08:07:21;;;;;;;0.10;0.10;;;;;;;10.31;60.81;100783.44;5017325;28;20034;-81
2022/03/30 08:09:48;;;;;;;1.17;0.65;;;;;;;10.40;60.93;100774.47;5016552;28;20029;-81
2022/03/30 08:12:15;;;;;;;0.00;0.00;;;;;;;10.51;60.30;100775.13;5017726;28;20038;-81
2022/03/30 08:14:42;;;;;;;0.10;0.10;;;;;;;10.62;60.17;100774.91;5017385;28;20513;-81
2022/03/30 08:17:09;;;;;;;0.50;0.50;;;;;;;10.71;60.21;100770.31;5018412;28;20034;-81
2022/03/30 08:19:36;;;;;;;0.52;0.52;;;;;;;10.86;60.28;100772.63;5017324;28;20095;-81
2022/03/30 08:22:34;;;;;;;1.75;1.40;;;;;;;10.98;60.17;100775.00;5016152;28;20109;-81
2022/03/30 08:24:49;;;;;;;0.00;0.00;;;;;;;11.19;59.85;100777.19;5016967;28;20052;-81
2022/03/30 08:27:16;;;;;;;0.03;0.03;;;;;;;11.35;59.22;100777.69;5017025;28;20026;-81
2022/03/30 08:29:44;;;;;;;0.10;0.10;;;;;;;11.47;59.04;100772.94;5017472;28;20037;-81
2022/03/30 08:32:13;;;;;;;0.10;0.10;;;;;;;11.61;58.70;100769.97;5016721;28;20425;-81
2022/03/30 08:34:41;;;;;;;0.00;0.00;;;;;;;11.68;58.91;100769.81;5017392;28;20038;-81
2022/03/30 08:37:08;;;;;;;0.10;0.10;;;;;;;11.86;58.24;100769.31;5018412;28;20037;-82
2022/03/30 08:39:35;;;;;;;0.35;0.35;;;;;;;12.00;58.80;100761.03;5018318;28;20037;-81
2022/03/30 08:42:03;;;;;;;0.30;0.30;;;;;;;12.13;58.15;100762.41;5016109;28;20029;-81
2022/03/30 08:44:30;;;;;;;0.10;0.10;;;;;;;12.26;58.08;100765.59;5018108;28;20460;-82
2022/03/30 08:46:56;;;;;;;0.00;0.00;;;;;;;12.40;57.48;100764.31;5016374;28;20026;-82
2022/03/30 08:49:22;;;;;;;0.15;0.15;;;;;;;12.50;56.76;100763.16;5017747;28;20099;-84
2022/03/30 08:51:49;;;;;;;0.28;0.20;;;;;;;12.59;55.68;100759.34;5015729;28;20037;-82
2022/03/30 08:54:17;;;;;;;0.10;0.10;;;;;;;12.72;55.78;100757.19;5015977;28;20034;-82
2022/03/30 08:56:45;;;;;;;0.10;0.10;;;;;;;12.82;55.63;100761.31;5016909;28;20036;-82
2022/03/30 08:59:19;;;;;;;0.10;0.10;;;;;;;12.90;54.49;100758.44;5017925;28;20041;-82
2022/03/30 09:01:45;;;;;;;0.10;0.10;;;;;;;12.93;53.46;100753.88;4998464;28;20452;-82
2022/03/30 09:04:13;;;;;;;0.20;0.20;;;;;;;12.92;52.88;100746.81;5015765;28;20040;-82
2022/03/30 09:12:10;;;;;;;0.20;0.20;;;;;;;13.04;53.13;100758.00;5113451;27;20377;-81
2022/03/30 09:14:39;;;;;;;0.10;0.10;;;;;;;13.10;53.99;100742.69;5112839;28;20035;-80
2022/03/30 09:17:07;;;;;;;0.43;0.43;;;;;;;13.14;53.83;100748.78;5106001;28;20024;-80
2022/03/30 09:19:36;;;;;;;5.72;1.55;;;;;;;13.21;53.55;100742.34;5110667;28;20055;-80
2022/03/30 09:22:05;;;;;;;0.20;0.20;;;;;;;13.24;51.86;100742.25;5109889;28;20031;-80
2022/03/30 09:24:35;;;;;;;3.97;0.70;;;;;;;13.34;52.95;100742.81;5112358;28;20046;-80
2022/03/30 09:27:03;;;;;;;0.35;0.35;;;;;;;13.44;52.86;100735.44;5113337;28;20050;-80
2022/03/30 09:29:32;;;;;;;0.73;0.73;;;;;;;13.57;52.63;100741.19;5112221;28;20023;-80
2022/03/30 09:32:03;;;;;;;3.85;1.13;;;;;;;13.62;51.09;100747.25;5110898;28;20020;-80
2022/03/30 09:34:33;;;;;;;0.10;0.10;;;;;;;13.69;50.22;100738.13;5112482;28;20026;-80
2022/03/30 09:37:00;;;;;;;0.32;0.32;;;;;;;13.81;49.91;100735.97;5111497;28;20028;-80
2022/03/30 09:39:32;;;;;;;0.63;0.63;;;;;;;13.93;51.63;100726.66;5103204;28;20503;-80
2022/03/30 09:42:01;;;;;;;0.52;0.52;;;;;;;14.01;50.54;100729.94;5102603;28;20510;-80
2022/03/30 09:44:29;;;;;;;0.10;0.10;;;;;;;14.07;50.38;100727.91;5101476;28;20069;-81
2022/03/30 09:52:30;;;;;;;0.10;0.10;;;;;;;14.49;48.52;100723.69;5092855;27;1211851;-80
2022/03/30 10:00:13;;;;;;;0.47;0.47;;;;;;;15.01;47.97;100703.91;5153053;27;20602;-80
2022/03/30 10:02:42;;;;;;;0.40;0.40;;;;;;;15.07;46.11;100713.50;5140963;27;20039;-81
2022/03/30 10:05:11;;;;;;;0.10;0.10;;;;;;;15.14;45.88;100709.63;5152074;27;20435;-80
2022/03/30 10:07:38;;;;;;;0.47;0.45;;;;;;;15.31;46.53;100712.44;5151620;27;20050;-80
2022/03/30 10:10:06;;;;;;;0.77;0.77;;;;;;;15.46;45.99;100704.72;5151828;27;20077;-80
2022/03/30 10:12:32;;;;;;;0.20;0.20;;;;;;;15.56;45.42;100699.88;5152035;27;20040;-80
2022/03/30 10:14:59;;;;;;;0.52;0.52;;;;;;;15.87;45.68;100703.91;5150530;27;20122;-80
2022/03/30 10:17:28;;;;;;;0.52;0.52;;;;;;;16.01;44.85;100702.34;5151313;27;20493;-80
2022/03/30 10:19:57;;;;;;;0.40;0.40;;;;;;;16.14;44.33;100697.31;5150182;27;20015;-80
2022/03/30 10:25:38;;;;;;;0.40;0.40;;;;;;;16.28;45.24;100699.34;5092090;27;20397;-81
2022/03/30 10:28:21;;;;;;;0.30;0.30;;;;;;;16.28;44.50;100691.31;5090971;28;20024;-80
2022/03/30 10:30:52;;;;;;;0.00;0.00;;;;;;;16.18;43.73;100693.56;5090640;28;20034;-80
2022/03/30 10:33:39;;;;;;;0.30;0.30;;;;;;;16.16;44.11;100690.09;5091108;28;20681;-80
2022/03/30 10:36:27;;;;;;;0.57;0.57;;;;;;;16.05;42.39;100683.50;5090699;28;20031;-80
2022/03/30 10:41:52;;;;;;;0.07;0.07;;;;;;;16.04;43.81;100685.31;5091305;27;1170577;-81
2022/03/30 10:44:42;;;;;;;0.30;0.30;;;;;;;15.97;42.52;100675.84;5105854;28;20061;-81
2022/03/30 10:47:12;;;;;;;0.47;0.47;;;;;;;15.94;43.26;100684.84;5103260;28;20471;-81
2022/03/30 10:49:51;;;;;;;0.00;0.00;;;;;;;15.92;43.56;100685.88;5100731;28;20032;-81
2022/03/30 10:52:40;;;;;;;0.15;0.15;;;;;;;16.00;42.58;100678.38;5099910;28;20020;-81
2022/03/30 10:57:53;;;;;;;0.20;0.20;;;;;;;16.11;43.21;100689.44;5094855;27;20356;-80
2022/03/30 11:00:22;;;;;;;0.65;0.65;;;;;;;16.16;40.56;100674.06;5092855;28;20028;-81
2022/03/30 11:02:49;;;;;;;0.10;0.10;;;;;;;16.22;42.37;100672.91;5092478;28;20031;-80
2022/03/30 11:05:24;;;;;;;0.10;0.10;;;;;;;16.29;42.54;100662.81;5084403;28;20408;-82
2022/03/30 11:07:51;;;;;;;0.10;0.10;;;;;;;16.28;42.46;100663.75;5085511;28;20046;-85
2022/03/30 11:13:04;;;;;;;1.95;1.85;;;;;;;16.15;41.57;100653.63;5050688;28;20391;-83
2022/03/30 11:15:53;;;;;;;1.35;1.25;;;;;;;16.16;43.02;100647.34;5041770;28;20025;-81
2022/03/30 11:18:20;;;;;;;0.40;0.40;;;;;;;16.18;40.79;100640.09;5039796;28;20056;-82
2022/03/30 11:29:52;;;;;;;0.73;0.73;;;;;;;16.59;40.08;100616.81;5110390;27;21021;-83
2022/03/30 11:34:59;;;;;;;0.10;0.10;;;;;;;16.74;39.73;100615.19;5113046;27;20517;-83
2022/03/30 11:37:31;;;;;;;4.20;0.52;;;;;;;16.78;39.51;100601.56;5112450;28;20044;-82
2022/03/30 11:40:04;;;;;;;1.13;1.00;;;;;;;16.77;39.03;100601.66;5112272;28;20036;-82
2022/03/30 11:42:31;;;;;;;0.10;0.10;;;;;;;16.87;39.48;100594.88;5111974;28;20062;-82
2022/03/30 11:45:18;;;;;;;0.20;0.20;;;;;;;16.79;39.62;100599.78;5112685;28;20128;-83
2022/03/30 11:47:52;;;;;;;1.45;0.90;;;;;;;16.85;39.76;100607.50;5113497;28;20100;-83
2022/03/30 11:50:36;;;;;;;0.20;0.20;;;;;;;16.83;38.55;100604.03;5112414;28;20036;-82
2022/03/30 11:53:07;;;;;;;0.55;0.55;;;;;;;16.80;38.88;100601.50;5110983;28;20020;-82
2022/03/30 11:55:38;;;;;;;0.10;0.10;;;;;;;16.92;39.94;100606.28;5111178;28;20024;-82
2022/03/30 11:58:05;;;;;;;6.70;1.70;;;;;;;17.02;38.12;100597.78;5111943;22;20047;-79
2022/03/30 12:00:32;;;;;;;0.10;0.10;;;;;;;17.12;37.30;100589.22;5104165;28;20255;-78
2022/03/30 12:03:02;;;;;;;0.65;0.65;;;;;;;17.16;38.30;100589.03;5112724;28;20058;-79
2022/03/30 12:05:28;;;;;;;0.30;0.30;;;;;;;17.10;37.50;100587.56;5112613;28;20020;-79
2022/03/30 12:07:56;;;;;;;0.00;0.00;;;;;;;17.10;38.18;100577.69;5110533;28;20032;-80
2022/03/30 12:10:31;;;;;;;0.40;0.40;;;;;;;17.23;38.89;100579.75;5110612;28;20110;-79
2022/03/30 12:12:59;;;;;;;0.13;0.13;;;;;;;17.40;38.87;100581.53;5109532;28;20034;-78
2022/03/30 12:15:26;;;;;;;0.10;0.10;;;;;;;17.62;38.53;100582.13;5109576;28;20077;-79
2022/03/30 12:17:55;;;;;;;0.00;0.00;;;;;;;17.80;38.39;100582.06;5109821;28;20031;-79
2022/03/30 12:23:06;;;;;;;0.43;0.43;;;;;;;17.61;36.30;100575.03;5050083;28;20403;-79